Sunday, February 17, 2019, 3:02 PM EST
Back to Local

K1V4, St Johnsbury Fairbanks

Location: Saint Johnsbury, VT, United States Lat: 44.417
Local Time: 3:02 PM EST (20:02 GMT) Lon: -72.017
Time Zone: US/Eastern Elev: 695 ft

Show me the last for .
Show Coded

Time T Td Feel RH Dir Speed Gust Alt SLP Vis Weather Sky Remarks
2019-02-17 13:54 22 4 - 45 - - - 30.05 30.11 0 None
2019-02-17 12:54 21 5 - 49 - - - 30.09 30.14 0 6-hr Min Temp (1pm): -0.0°F
6-hr Max Temp (1pm): 21.0°F
2019-02-17 11:54 19 5 - 53 - - - 30.10 30.16 0 None
2019-02-17 10:54 17 5 - 58 - - - 30.13 30.19 0 None
2019-02-17 09:54 13 6 - 73 - - - 30.13 30.19 0 None
2019-02-17 08:54 6 4 - 90 - - - 30.16 30.22 0 None
2019-02-17 07:54 2 0 - 91 - - - 30.15 30.21 0 None
2019-02-17 06:54 1 -3 - 82 - - - 30.10 30.17 0 6-hr Min Temp (7am): -0.0°F
6-hr Max Temp (7am): 10.9°F
2019-02-17 05:54 2 -1 - 87 - - - 30.08 30.14 0 None
2019-02-17 04:54 3 0 - 86 - - - 30.08 30.14 0 None
2019-02-17 03:54 6 3 - 86 - - - 30.05 30.11 0 None
2019-02-17 02:54 8 5 - 86 - - - 30.04 30.09 0 None
2019-02-17 01:54 10 7 - 87 - - - 30.05 30.10 0 None
2019-02-17 00:54 11 7 - 83 - - - 30.02 30.06 0 6-hr Min Temp (1am): 10.0°F
6-hr Max Temp (1am): 19.9°F
2019-02-16 23:54 13 9 - 83 - - - 29.99 30.04 0 24-hr Min Temp (12am): 12.0°F
24-hr Max Temp (12am): 32.0°F
2019-02-16 22:54 14 9 - 79 - - - 29.97 30.01 0 None
2019-02-16 21:54 16 9 - 73 - - - 29.95 30.00 0 None
2019-02-16 20:54 18 9 - 67 - - - 29.95 30.00 0 None
2019-02-16 19:54 19 9 - 64 - - - 29.93 29.98 0 None
2019-02-16 18:54 20 9 - 61 - - - 29.94 29.99 0 6-hr Min Temp (7pm): 19.9°F
6-hr Max Temp (7pm): 30.9°F
2019-02-16 17:54 23 11 - 59 - - - 29.91 29.95 0 Pressure rising rapidly
2019-02-16 16:54 26 14 - 59 - - - 29.86 29.90 0 None
2019-02-16 15:54 28 14 - 55 - - - 29.82 29.86 0 None

Support USWX by starting your Amazon purchase here.